createdAt,value
2023-02-17T00:00:05.488Z,9.50
2023-02-17T00:02:33.431Z,7.00
2023-02-17T00:05:01.129Z,9.25
2023-02-17T00:07:32.007Z,13.80
2023-02-17T00:09:59.647Z,4.80
2023-02-17T00:12:27.297Z,14.40
2023-02-17T00:14:55.159Z,9.60
2023-02-17T00:17:22.857Z,11.20
2023-02-17T00:19:50.841Z,9.50
2023-02-17T00:22:18.419Z,13.00
2023-02-17T00:24:46.085Z,10.00
2023-02-17T00:27:13.886Z,10.00
2023-02-17T00:29:41.936Z,9.50
2023-02-17T00:32:10.891Z,3.00
2023-02-17T00:34:38.598Z,13.00
2023-02-17T00:37:06.304Z,10.00
2023-02-17T00:39:34.350Z,13.25
2023-02-17T00:42:02.018Z,9.00
2023-02-17T00:44:29.724Z,6.75
2023-02-17T00:46:57.476Z,6.00
2023-02-17T00:49:25.353Z,12.00
2023-02-17T00:51:54.656Z,14.00
2023-02-17T00:54:22.303Z,12.50
2023-02-17T00:56:50.288Z,9.50
2023-02-17T00:59:17.905Z,6.25
2023-02-17T01:01:45.624Z,12.25
2023-02-17T01:04:13.286Z,9.25
2023-02-17T01:06:40.918Z,14.00
2023-02-17T01:09:08.949Z,6.50
2023-02-17T01:11:36.609Z,11.75
2023-02-17T01:14:06.373Z,9.75
2023-02-17T01:16:35.389Z,6.00
2023-02-17T01:19:03.006Z,11.00
2023-02-17T01:21:30.608Z,7.00
2023-02-17T01:23:58.321Z,6.50
2023-02-17T01:26:25.910Z,12.00
2023-02-17T01:28:53.530Z,12.25
2023-02-17T01:31:21.256Z,12.25
2023-02-17T01:33:48.906Z,9.75
2023-02-17T01:36:16.540Z,12.00
2023-02-17T01:38:44.246Z,12.25
2023-02-17T01:41:11.922Z,10.00
2023-02-17T01:43:39.543Z,7.50
2023-02-17T01:46:07.740Z,9.75
2023-02-17T01:48:35.463Z,7.00
2023-02-17T01:51:03.083Z,9.00
2023-02-17T01:53:30.744Z,11.50
2023-02-17T01:55:58.376Z,10.00
2023-02-17T01:58:26.740Z,6.00
2023-02-17T02:00:54.431Z,9.75
2023-02-17T02:03:22.006Z,9.50
2023-02-17T02:05:49.772Z,10.00
2023-02-17T02:08:17.486Z,6.50
2023-02-17T02:10:45.481Z,8.25
2023-02-17T02:13:13.104Z,7.50
2023-02-17T02:15:40.747Z,9.75
2023-02-17T02:18:08.737Z,10.50
2023-02-17T02:20:36.629Z,4.00
2023-02-17T02:23:04.610Z,9.75
2023-02-17T02:25:32.238Z,9.00
2023-02-17T02:27:59.821Z,9.00
2023-02-17T02:30:27.713Z,6.25
2023-02-17T02:32:55.351Z,9.75
2023-02-17T02:35:23.346Z,9.00
2023-02-17T02:37:50.954Z,8.00
2023-02-17T02:40:18.553Z,9.00
2023-02-17T02:42:47.831Z,6.50
2023-02-17T02:45:15.455Z,7.50
2023-02-17T02:47:43.465Z,9.00
2023-02-17T02:50:11.082Z,8.00
2023-02-17T02:52:38.713Z,10.50
2023-02-17T02:55:06.529Z,11.25
2023-02-17T02:57:34.136Z,8.00
2023-02-17T03:00:02.131Z,6.25
2023-02-17T03:02:29.766Z,5.00
2023-02-17T03:04:57.388Z,10.00
2023-02-17T03:07:25.026Z,4.50
2023-02-17T03:09:52.654Z,8.00
2023-02-17T03:12:20.253Z,11.00
2023-02-17T03:14:47.857Z,7.00
2023-02-17T03:17:15.431Z,9.75
2023-02-17T03:19:45.624Z,10.50
2023-02-17T03:22:13.205Z,7.00
2023-02-17T03:24:40.782Z,7.50
2023-02-17T03:27:08.716Z,9.25
2023-02-17T03:29:36.339Z,7.00
2023-02-17T03:32:04.099Z,10.00
2023-02-17T03:34:31.648Z,9.00
2023-02-17T03:36:59.601Z,6.75
2023-02-17T03:39:27.615Z,5.00
2023-02-17T03:41:55.187Z,9.00
2023-02-17T03:44:22.809Z,9.50
2023-02-17T03:46:50.535Z,8.00
2023-02-17T03:49:18.964Z,6.50
2023-02-17T03:51:46.546Z,5.25
2023-02-17T03:54:14.084Z,9.00
2023-02-17T03:56:41.810Z,6.00
2023-02-17T03:59:09.386Z,7.00
2023-02-17T04:01:37.342Z,3.00
2023-02-17T04:04:04.960Z,8.00
2023-02-17T04:06:32.561Z,6.50
2023-02-17T04:09:00.186Z,7.00
2023-02-17T04:11:28.148Z,6.50
2023-02-17T04:13:56.087Z,5.00
2023-02-17T04:16:23.629Z,10.00
2023-02-17T04:18:51.172Z,9.00
2023-02-17T04:21:18.763Z,0.00
2023-02-17T04:23:46.306Z,6.50
2023-02-17T04:26:14.259Z,7.00
2023-02-17T04:28:41.897Z,7.00
2023-02-17T04:31:09.884Z,10.75
2023-02-17T04:33:38.120Z,3.25
2023-02-17T04:36:06.056Z,7.00
2023-02-17T04:38:34.306Z,7.00
2023-02-17T04:41:01.904Z,0.00
2023-02-17T04:43:29.536Z,1.50
2023-02-17T04:45:57.157Z,9.75
2023-02-17T04:48:24.757Z,6.75
2023-02-17T04:50:52.755Z,6.75
2023-02-17T04:53:20.328Z,6.50
2023-02-17T04:55:47.902Z,4.50
2023-02-17T04:58:15.535Z,9.75
2023-02-17T05:00:43.100Z,6.75
2023-02-17T05:03:11.048Z,9.00
2023-02-17T05:05:38.717Z,8.00
2023-02-17T05:08:06.255Z,6.50
2023-02-17T05:10:33.817Z,3.50
2023-02-17T05:13:01.488Z,7.00
2023-02-17T05:15:29.907Z,8.00
2023-02-17T05:17:57.515Z,5.00
2023-02-17T05:20:25.116Z,9.25
2023-02-17T05:22:52.731Z,9.50
2023-02-17T05:25:20.324Z,7.50
2023-02-17T05:27:48.275Z,4.00
2023-02-17T05:30:15.908Z,8.50
2023-02-17T05:32:43.513Z,6.25
2023-02-17T05:35:11.165Z,7.00
2023-02-17T05:37:39.227Z,6.75
2023-02-17T05:40:07.180Z,9.00
2023-02-17T05:42:34.822Z,7.50
2023-02-17T05:45:02.420Z,9.00
2023-02-17T05:47:30.293Z,8.50
2023-02-17T05:49:57.993Z,7.00
2023-02-17T05:52:25.936Z,3.75
2023-02-17T05:54:53.572Z,6.00
2023-02-17T05:57:21.348Z,4.00
2023-02-17T05:59:50.801Z,9.50
2023-02-17T06:02:18.400Z,7.00
2023-02-17T06:04:46.547Z,7.50
2023-02-17T06:07:14.287Z,6.75
2023-02-17T06:09:41.919Z,2.00
2023-02-17T06:12:10.102Z,0.00
2023-02-17T06:14:37.745Z,6.00
2023-02-17T06:17:05.711Z,7.00
2023-02-17T06:19:33.498Z,5.00
2023-02-17T06:22:01.469Z,7.00
2023-02-17T06:24:29.291Z,7.00
2023-02-17T06:26:56.985Z,6.25
2023-02-17T06:29:24.933Z,1.50
2023-02-17T06:31:52.617Z,5.33
2023-02-17T06:34:20.408Z,6.75
2023-02-17T06:36:48.357Z,9.00
2023-02-17T06:39:15.978Z,9.50
2023-02-17T06:41:44.098Z,9.00
2023-02-17T06:44:12.077Z,10.50
2023-02-17T06:46:39.706Z,8.00
2023-02-17T06:49:07.392Z,4.25
2023-02-17T06:51:35.071Z,8.50
2023-02-17T06:54:02.755Z,4.50
2023-02-17T06:56:30.557Z,10.00
2023-02-17T06:58:58.208Z,8.50
2023-02-17T07:01:26.568Z,7.50
2023-02-17T07:03:54.245Z,8.00
2023-02-17T07:06:23.354Z,6.50
2023-02-17T07:08:52.461Z,9.25
2023-02-17T07:11:20.172Z,6.00
2023-02-17T07:13:47.885Z,13.50
2023-02-17T07:16:15.599Z,9.00
2023-02-17T07:18:43.707Z,6.00
2023-02-17T07:21:11.354Z,10.00
2023-02-17T07:23:39.695Z,9.50
2023-02-17T07:26:08.658Z,8.50
2023-02-17T07:28:36.767Z,9.50
2023-02-17T07:31:04.941Z,9.00
2023-02-17T07:33:32.822Z,10.00
2023-02-17T07:36:00.573Z,6.00
2023-02-17T07:38:28.617Z,8.00
2023-02-17T07:40:56.413Z,4.00
2023-02-17T07:43:24.502Z,6.50
2023-02-17T07:45:52.201Z,10.00
2023-02-17T07:48:20.034Z,7.00
2023-02-17T07:50:49.177Z,6.50
2023-02-17T07:53:16.852Z,4.50
2023-02-17T07:55:44.943Z,8.25
2023-02-17T07:58:12.631Z,7.75
2023-02-17T08:00:40.479Z,7.00
2023-02-17T08:03:11.067Z,6.00
2023-02-17T08:05:38.857Z,6.25
2023-02-17T08:08:24.822Z,3.00
2023-02-17T08:11:10.382Z,6.50
2023-02-17T08:13:38.280Z,6.50
2023-02-17T08:16:06.257Z,7.50
2023-02-17T08:18:36.764Z,6.50
2023-02-17T08:21:04.954Z,4.50
2023-02-17T08:23:32.880Z,6.00
2023-02-17T08:26:00.830Z,7.25
2023-02-17T08:28:28.847Z,7.00
2023-02-17T08:30:57.281Z,4.50
2023-02-17T08:33:24.966Z,6.25
2023-02-17T08:35:52.918Z,6.25
2023-02-17T08:38:20.794Z,9.00
2023-02-17T08:40:48.566Z,4.50
2023-02-17T08:43:16.964Z,7.00
2023-02-17T08:45:44.842Z,9.00
2023-02-17T08:48:12.670Z,6.00
2023-02-17T08:50:40.520Z,7.00
2023-02-17T08:53:08.725Z,9.00
2023-02-17T08:55:48.490Z,7.00
2023-02-17T08:58:17.216Z,3.00
2023-02-17T09:00:45.017Z,8.50
2023-02-17T09:03:12.892Z,8.00
2023-02-17T09:05:41.383Z,6.00
2023-02-17T09:08:09.363Z,6.25
2023-02-17T09:10:37.182Z,6.50
2023-02-17T09:13:05.253Z,7.00
2023-02-17T09:15:33.102Z,7.00
2023-02-17T09:18:01.297Z,3.00
2023-02-17T09:20:29.208Z,2.00
2023-02-17T09:22:57.085Z,6.00
2023-02-17T09:25:25.063Z,5.50
2023-02-17T09:27:53.020Z,4.00
2023-02-17T09:30:21.506Z,6.00
2023-02-17T09:32:49.254Z,6.00
2023-02-17T09:35:17.221Z,4.50
2023-02-17T09:37:45.104Z,4.50
2023-02-17T09:40:12.993Z,5.50
2023-02-17T09:42:41.732Z,4.00
2023-02-17T09:45:11.887Z,6.25
2023-02-17T09:47:40.891Z,3.75
2023-02-17T09:50:08.748Z,6.00
2023-02-17T09:52:37.430Z,4.00
2023-02-17T09:55:05.808Z,3.75
2023-02-17T09:57:34.064Z,4.00
2023-02-17T10:00:01.923Z,3.00
2023-02-17T10:02:30.124Z,4.50
2023-02-17T10:04:58.008Z,3.50
2023-02-17T10:07:26.181Z,4.00
2023-02-17T10:09:54.264Z,4.50
2023-02-17T10:12:22.126Z,4.00
2023-02-17T10:14:50.066Z,5.50
2023-02-17T10:17:18.419Z,5.50
2023-02-17T10:19:46.823Z,3.00
2023-02-17T10:22:14.558Z,1.50
2023-02-17T10:24:42.471Z,1.50
2023-02-17T10:27:10.604Z,3.25
2023-02-17T10:29:38.450Z,4.00
2023-02-17T10:32:06.892Z,4.00
2023-02-17T10:34:34.767Z,3.00
2023-02-17T10:37:02.642Z,4.00
2023-02-17T10:39:31.721Z,4.00
2023-02-17T10:41:59.644Z,3.00
2023-02-17T10:44:28.196Z,5.00
2023-02-17T10:46:56.178Z,3.00
2023-02-17T10:49:24.071Z,5.00
2023-02-17T10:51:52.137Z,5.00
2023-02-17T10:54:20.087Z,5.00
2023-02-17T10:56:47.854Z,4.00
2023-02-17T10:59:15.715Z,3.00
2023-02-17T11:01:43.671Z,3.50
2023-02-17T11:04:13.867Z,3.50
2023-02-17T11:06:41.963Z,5.00
2023-02-17T11:09:12.586Z,3.50
2023-02-17T11:11:40.468Z,4.00
2023-02-17T11:14:08.301Z,4.00
2023-02-17T11:16:36.464Z,1.00
2023-02-17T11:19:04.278Z,4.50
2023-02-17T11:21:33.825Z,3.00
2023-02-17T11:24:02.488Z,2.50
2023-02-17T11:26:30.402Z,3.00
2023-02-17T11:28:58.441Z,1.00
2023-02-17T11:31:26.493Z,3.00
2023-02-17T11:33:56.865Z,3.00
2023-02-17T11:36:25.052Z,2.00
2023-02-17T11:38:53.102Z,3.00
2023-02-17T11:41:21.077Z,4.00
2023-02-17T11:43:49.766Z,3.50
2023-02-17T11:46:18.316Z,2.00
2023-02-17T11:48:46.228Z,3.25
2023-02-17T11:51:14.027Z,3.00
2023-02-17T11:53:42.261Z,3.00
2023-02-17T11:56:10.164Z,2.50
2023-02-17T11:58:38.556Z,2.00
2023-02-17T12:01:06.615Z,3.00
2023-02-17T12:03:36.691Z,3.00
2023-02-17T12:06:05.318Z,2.50
2023-02-17T12:08:33.437Z,1.00
2023-02-17T12:11:01.183Z,3.00
2023-02-17T12:13:29.217Z,3.00
2023-02-17T12:15:57.598Z,0.50
2023-02-17T12:18:25.454Z,3.00
2023-02-17T12:20:53.326Z,1.50
2023-02-17T12:23:21.707Z,3.50
2023-02-17T12:25:49.614Z,1.00
2023-02-17T12:28:17.886Z,3.00
2023-02-17T12:30:46.526Z,3.00
2023-02-17T12:33:14.483Z,3.00
2023-02-17T12:35:42.278Z,0.00
2023-02-17T12:38:10.353Z,1.00
2023-02-17T12:40:38.213Z,1.00
2023-02-17T12:43:06.117Z,1.50
2023-02-17T12:45:34.004Z,3.00
2023-02-17T12:48:02.303Z,0.00
2023-02-17T12:50:30.487Z,2.50
2023-02-17T12:52:58.451Z,1.00
2023-02-17T12:55:27.453Z,1.00
2023-02-17T12:57:58.405Z,3.00
2023-02-17T13:00:26.946Z,2.00
2023-02-17T13:02:54.796Z,1.00
2023-02-17T13:05:22.636Z,1.00
2023-02-17T13:07:51.581Z,1.50
2023-02-17T13:10:19.679Z,3.00
2023-02-17T13:12:48.010Z,3.00
2023-02-17T13:15:15.975Z,2.50
2023-02-17T13:17:43.737Z,1.00
2023-02-17T13:20:11.532Z,3.00
2023-02-17T13:22:39.500Z,2.50
2023-02-17T13:25:07.686Z,1.00
2023-02-17T13:27:35.581Z,3.00
2023-02-17T13:30:03.699Z,2.00
2023-02-17T13:32:31.923Z,3.00
2023-02-17T13:34:59.774Z,1.00
2023-02-17T13:37:29.290Z,1.00
2023-02-17T13:39:57.249Z,1.00
2023-02-17T13:42:25.080Z,1.50
2023-02-17T13:44:53.203Z,1.67
2023-02-17T13:47:21.107Z,2.50
2023-02-17T13:49:50.881Z,3.50
2023-02-17T13:52:18.989Z,0.50
2023-02-17T13:54:46.937Z,4.00
2023-02-17T13:57:15.304Z,1.00
2023-02-17T13:59:43.331Z,2.50
2023-02-17T14:02:11.435Z,2.50
2023-02-17T14:04:39.488Z,0.75
2023-02-17T14:07:07.547Z,2.00
2023-02-17T14:09:35.720Z,1.00
2023-02-17T14:12:03.545Z,2.00
2023-02-17T14:14:31.786Z,0.00
2023-02-17T14:17:00.041Z,1.00
2023-02-17T14:19:27.773Z,2.00
2023-02-17T14:21:56.255Z,1.50
2023-02-17T14:24:24.141Z,1.00
2023-02-17T14:26:54.092Z,1.00
2023-02-17T14:29:22.052Z,3.50
2023-02-17T14:31:50.159Z,3.75
2023-02-17T14:34:18.110Z,3.00
2023-02-17T14:36:46.231Z,0.00
2023-02-17T14:39:14.877Z,4.75
2023-02-17T14:41:42.771Z,3.25
2023-02-17T14:44:10.700Z,4.00
2023-02-17T14:46:38.814Z,3.25
2023-02-17T14:49:06.775Z,4.00
2023-02-17T14:51:35.304Z,4.00
2023-02-17T14:54:03.149Z,3.50
2023-02-17T14:56:31.121Z,4.00
2023-02-17T14:58:59.474Z,4.00
2023-02-17T15:01:27.441Z,3.00
2023-02-17T15:03:55.612Z,4.00
2023-02-17T15:06:23.738Z,5.00
2023-02-17T15:08:51.666Z,3.00
2023-02-17T15:11:19.644Z,3.00
2023-02-17T15:13:47.554Z,3.00
2023-02-17T15:16:16.849Z,4.00
2023-02-17T15:18:44.791Z,1.00
2023-02-17T15:21:13.487Z,4.00
2023-02-17T15:23:41.849Z,3.75
2023-02-17T15:26:09.773Z,6.00
2023-02-17T15:28:38.275Z,3.75
2023-02-17T15:31:06.266Z,0.00
2023-02-17T15:33:34.144Z,5.50
2023-02-17T15:36:02.530Z,3.50
2023-02-17T15:38:30.261Z,6.00
2023-02-17T15:40:59.364Z,3.25
2023-02-17T15:43:27.749Z,4.00
2023-02-17T15:45:55.679Z,3.25
2023-02-17T15:48:23.769Z,5.50
2023-02-17T15:50:51.719Z,4.50
2023-02-17T15:53:19.730Z,3.50
2023-02-17T15:55:47.561Z,4.00
2023-02-17T15:58:17.043Z,4.00
2023-02-17T16:00:46.215Z,2.00
2023-02-17T16:03:14.135Z,3.50
2023-02-17T16:05:42.654Z,3.00
2023-02-17T16:08:10.505Z,3.00
2023-02-17T16:10:39.811Z,5.00
2023-02-17T16:13:08.427Z,4.00
2023-02-17T16:15:37.619Z,2.50
2023-02-17T16:18:05.544Z,1.00
2023-02-17T16:20:34.942Z,3.00
2023-02-17T16:23:03.171Z,1.00
2023-02-17T16:25:31.373Z,3.75
2023-02-17T16:27:59.582Z,3.50
2023-02-17T16:30:27.872Z,1.50
2023-02-17T16:32:55.826Z,2.00
2023-02-17T16:35:23.778Z,0.00
2023-02-17T16:37:51.557Z,3.00
2023-02-17T16:40:19.392Z,3.00
2023-02-17T16:42:47.371Z,3.75
2023-02-17T16:45:15.173Z,4.50
2023-02-17T16:47:43.165Z,5.50
2023-02-17T16:50:11.876Z,7.00
2023-02-17T16:52:39.810Z,7.50
2023-02-17T16:55:07.743Z,6.00
2023-02-17T16:57:35.798Z,8.00
2023-02-17T17:00:04.741Z,6.00
2023-02-17T17:02:32.739Z,3.50
2023-02-17T17:05:00.816Z,6.00
2023-02-17T17:07:28.995Z,6.75
2023-02-17T17:10:15.512Z,5.50
2023-02-17T17:12:44.737Z,2.50
2023-02-17T17:15:12.678Z,6.25
2023-02-17T17:17:40.674Z,5.00
2023-02-17T17:20:09.119Z,6.00
2023-02-17T17:22:37.055Z,6.00
2023-02-17T17:25:05.100Z,0.25
2023-02-17T17:27:33.056Z,5.00
2023-02-17T17:30:01.131Z,6.00
2023-02-17T17:32:29.173Z,6.25
2023-02-17T17:34:57.303Z,4.00
2023-02-17T17:37:25.438Z,5.50
2023-02-17T17:39:53.470Z,1.00
2023-02-17T17:42:21.901Z,3.75
2023-02-17T17:44:49.807Z,5.00
2023-02-17T17:47:24.766Z,1.00
2023-02-17T17:49:57.440Z,4.50
2023-02-17T17:52:26.058Z,4.00
2023-02-17T17:54:54.027Z,4.00
2023-02-17T17:57:22.857Z,5.50
2023-02-17T17:59:50.710Z,6.50
2023-02-17T18:02:18.765Z,4.00
2023-02-17T18:04:47.255Z,4.00
2023-02-17T18:07:15.235Z,4.50
2023-02-17T18:09:43.110Z,7.50
2023-02-17T18:12:11.133Z,6.00
2023-02-17T18:14:41.332Z,6.00
2023-02-17T18:17:09.811Z,4.00
2023-02-17T18:19:37.906Z,4.50
2023-02-17T18:22:05.826Z,6.75
2023-02-17T18:24:33.815Z,7.00
2023-02-17T18:27:01.846Z,7.00
2023-02-17T18:29:30.303Z,5.75
2023-02-17T18:31:59.405Z,4.50
2023-02-17T18:34:27.670Z,6.50
2023-02-17T18:36:55.855Z,7.00
2023-02-17T18:39:23.663Z,3.00
2023-02-17T18:41:52.485Z,8.00
2023-02-17T18:44:20.335Z,7.00
2023-02-17T18:46:48.282Z,7.00
2023-02-17T18:49:16.421Z,6.75
2023-02-17T18:51:44.573Z,7.50
2023-02-17T18:54:13.106Z,9.00
2023-02-17T18:56:41.190Z,6.25
2023-02-17T18:59:09.683Z,9.25
2023-02-17T19:01:39.445Z,9.00
2023-02-17T19:04:07.556Z,6.75
2023-02-17T19:06:36.038Z,7.00
2023-02-17T19:09:04.568Z,6.50
2023-02-17T19:11:32.508Z,4.00
2023-02-17T19:14:00.293Z,8.50
2023-02-17T19:16:28.715Z,7.00
2023-02-17T19:18:57.193Z,7.50
2023-02-17T19:21:25.685Z,7.00
2023-02-17T19:23:53.654Z,8.00
2023-02-17T19:26:21.640Z,9.50
2023-02-17T19:28:49.746Z,8.00
2023-02-17T19:31:17.984Z,7.50
2023-02-17T19:33:46.146Z,8.00
2023-02-17T19:36:14.184Z,9.00
2023-02-17T19:38:41.974Z,7.50
2023-02-17T19:41:10.388Z,2.00
2023-02-17T19:43:39.076Z,3.00
2023-02-17T19:46:07.625Z,6.25
2023-02-17T19:48:35.887Z,6.00
2023-02-17T19:51:03.742Z,6.75
2023-02-17T19:53:33.405Z,8.00
2023-02-17T19:56:01.838Z,5.00
2023-02-17T19:58:29.705Z,7.00
2023-02-17T20:00:57.678Z,6.00
2023-02-17T20:03:25.654Z,5.75
2023-02-17T20:05:54.019Z,5.00
2023-02-17T20:08:22.366Z,7.00
2023-02-17T20:10:50.327Z,5.50
2023-02-17T20:13:18.208Z,5.50
2023-02-17T20:15:46.147Z,6.75
2023-02-17T20:18:14.563Z,6.00
2023-02-17T20:20:46.876Z,6.00
2023-02-17T20:23:14.874Z,9.00
2023-02-17T20:25:42.799Z,9.00
2023-02-17T20:28:11.235Z,6.50
2023-02-17T20:30:39.719Z,5.50
2023-02-17T20:33:08.021Z,5.00
2023-02-17T20:35:37.121Z,9.00
2023-02-17T20:38:05.375Z,8.50
2023-02-17T20:40:33.361Z,9.00
2023-02-17T20:43:01.734Z,6.00
2023-02-17T20:45:30.122Z,4.00
2023-02-17T20:47:58.067Z,7.50
2023-02-17T20:50:26.419Z,7.00
2023-02-17T20:52:54.221Z,7.50
2023-02-17T20:55:22.556Z,7.00
2023-02-17T20:57:50.835Z,7.50
2023-02-17T21:00:18.778Z,9.00
2023-02-17T21:02:47.035Z,7.00
2023-02-17T21:05:14.855Z,6.25
2023-02-17T21:07:42.959Z,5.00
2023-02-17T21:10:11.285Z,9.00
2023-02-17T21:12:39.514Z,9.00
2023-02-17T21:15:07.494Z,9.00
2023-02-17T21:17:35.398Z,8.50
2023-02-17T21:20:04.184Z,8.00
2023-02-17T21:22:32.060Z,7.00
2023-02-17T21:24:59.939Z,9.00
2023-02-17T21:27:27.799Z,6.75
2023-02-17T21:29:55.785Z,7.00
2023-02-17T21:32:23.906Z,9.00
2023-02-17T21:34:52.302Z,9.00
2023-02-17T21:37:20.241Z,6.00
2023-02-17T21:39:48.110Z,7.25
2023-02-17T21:42:37.460Z,10.00
2023-02-17T21:45:04.709Z,6.00
2023-02-17T21:47:32.682Z,6.25
2023-02-17T21:50:00.738Z,9.75
2023-02-17T21:52:28.694Z,10.00
2023-02-17T21:54:57.077Z,9.25
2023-02-17T21:57:25.491Z,4.50
2023-02-17T21:59:53.699Z,8.00
2023-02-17T22:02:21.430Z,9.75
2023-02-17T22:04:49.399Z,9.00
2023-02-17T22:07:17.307Z,9.00
2023-02-17T22:09:45.186Z,6.25
2023-02-17T22:12:13.109Z,7.50
2023-02-17T22:14:41.041Z,6.00
2023-02-17T22:17:09.178Z,7.00
2023-02-17T22:19:37.333Z,8.25
2023-02-17T22:22:05.753Z,10.25
2023-02-17T22:24:34.025Z,3.00
2023-02-17T22:27:02.024Z,6.50
2023-02-17T22:29:29.874Z,9.50
2023-02-17T22:31:58.003Z,8.00
2023-02-17T22:34:28.529Z,9.00
2023-02-17T22:36:56.406Z,8.00
2023-02-17T22:39:24.664Z,6.00
2023-02-17T22:41:52.696Z,7.50
2023-02-17T22:44:20.612Z,7.00
2023-02-17T22:46:48.775Z,5.00
2023-02-17T22:49:16.682Z,7.00
2023-02-17T22:51:44.435Z,7.50
2023-02-17T22:54:12.463Z,7.50
2023-02-17T22:56:40.341Z,7.75
2023-02-17T22:59:08.473Z,9.00
2023-02-17T23:01:36.557Z,7.00
2023-02-17T23:04:04.411Z,9.00
2023-02-17T23:06:32.395Z,6.25
2023-02-17T23:09:00.288Z,7.50
2023-02-17T23:11:46.033Z,8.00
2023-02-17T23:14:13.799Z,0.00
2023-02-17T23:16:41.586Z,7.50
2023-02-17T23:19:09.479Z,7.00
2023-02-17T23:21:37.508Z,7.50
2023-02-17T23:24:05.515Z,9.50
2023-02-17T23:26:33.363Z,9.00
2023-02-17T23:29:01.026Z,8.00
2023-02-17T23:31:28.873Z,7.00
2023-02-17T23:33:56.613Z,9.75
2023-02-17T23:36:24.699Z,6.75
2023-02-17T23:38:52.542Z,7.00
2023-02-17T23:41:20.206Z,8.50
2023-02-17T23:43:48.286Z,7.50
2023-02-17T23:46:15.912Z,6.00
2023-02-17T23:48:43.938Z,11.00
2023-02-17T23:51:11.562Z,7.50
2023-02-17T23:53:39.213Z,8.50
2023-02-17T23:56:07.303Z,8.00
2023-02-17T23:58:35.193Z,9.25
